Time;durP1;ratioP1;P1;durP2;ratioP2;P2;SDS_P1;SDS_P2;PMS_P1;PMS_P2;Temp;Humidity;BMP_temperature;BMP_pressure;BME280_temperature;BME280_humidity;BME280_pressure;Samples;Min_cycle;Max_cycle;Signal;HPM_P1;HPM_P2
2021/05/21 00:01:53;;;;;;;4.68;1.13;;;;;;;;;;5028259;28;20034;-71
2021/05/21 00:04:19;;;;;;;4.93;1.75;;;;;;;;;;5028679;28;20033;-73
2021/05/21 00:06:45;;;;;;;10.35;1.42;;;;;;;;;;5028666;28;20029;-73
2021/05/21 00:09:11;;;;;;;6.03;1.13;;;;;;;;;;5029404;28;20030;-73
2021/05/21 00:11:37;;;;;;;3.10;1.60;;;;;;;;;;5029758;28;20026;-73
2021/05/21 00:14:04;;;;;;;3.22;0.90;;;;;;;;;;5028457;28;20040;-73
2021/05/21 00:17:18;;;;;;;3.58;1.33;;;;;;;;;;5172746;27;20360;-72
2021/05/21 00:19:44;;;;;;;3.17;1.15;;;;;;;;;;5133193;27;20075;-73
2021/05/21 00:22:10;;;;;;;5.45;1.50;;;;;;;;;;5151217;27;20076;-73
2021/05/21 00:24:36;;;;;;;4.03;1.23;;;;;;;;;;5151532;27;20052;-72
2021/05/21 00:27:02;;;;;;;5.05;1.05;;;;;;;;;;5151476;27;20031;-73
2021/05/21 00:29:28;;;;;;;18.52;2.15;;;;;;;;;;5150978;27;20049;-73
2021/05/21 00:31:55;;;;;;;5.15;1.02;;;;;;;;;;5132851;27;20041;-71
2021/05/21 00:34:21;;;;;;;6.30;1.85;;;;;;;;;;5151279;27;20043;-72
2021/05/21 00:36:47;;;;;;;6.28;1.63;;;;;;;;;;5151125;27;20034;-72
2021/05/21 00:42:28;;;;;;;8.32;1.40;;;;;;;;;;5131488;27;20115;-71
2021/05/21 00:44:56;;;;;;;4.53;0.77;;;;;;;;;;5091756;28;20024;-71
2021/05/21 00:47:22;;;;;;;2.90;1.00;;;;;;;;;;5092056;28;20102;-71
2021/05/21 00:49:48;;;;;;;3.33;0.95;;;;;;;;;;5109876;28;20024;-71
2021/05/21 00:52:16;;;;;;;9.73;1.25;;;;;;;;;;5110244;28;20024;-71
2021/05/21 00:54:42;;;;;;;1.23;0.60;;;;;;;;;;5110244;28;20024;-71
2021/05/21 00:57:08;;;;;;;2.88;0.63;;;;;;;;;;5109980;28;20027;-72
2021/05/21 00:59:35;;;;;;;0.40;0.22;;;;;;;;;;5110242;28;20482;-71
2021/05/21 01:02:02;;;;;;;2.22;0.90;;;;;;;;;;5091666;28;20484;-72
2021/05/21 01:04:28;;;;;;;1.33;0.52;;;;;;;;;;5109610;28;20032;-72
2021/05/21 01:06:55;;;;;;;2.13;0.60;;;;;;;;;;5110014;28;20020;-72
2021/05/21 01:09:21;;;;;;;0.63;0.30;;;;;;;;;;5110006;28;20016;-72
2021/05/21 01:11:47;;;;;;;1.52;0.73;;;;;;;;;;5109511;28;20051;-72
2021/05/21 01:14:13;;;;;;;0.35;0.30;;;;;;;;;;5109951;28;20024;-72
2021/05/21 01:16:39;;;;;;;3.15;0.52;;;;;;;;;;5109855;28;20024;-72
2021/05/21 01:19:06;;;;;;;2.92;0.50;;;;;;;;;;5109778;28;20444;-72
2021/05/21 01:21:35;;;;;;;2.92;0.65;;;;;;;;;;5109680;28;20085;-72
2021/05/21 01:24:11;;;;;;;10.30;1.40;;;;;;;;;;5110546;27;20377;-71
2021/05/21 01:26:38;;;;;;;4.63;0.73;;;;;;;;;;5108718;28;20027;-71
2021/05/21 01:29:06;;;;;;;3.42;0.73;;;;;;;;;;5110348;28;20020;-73
2021/05/21 01:31:52;;;;;;;1.45;0.43;;;;;;;;;;5110066;27;20380;-73
2021/05/21 01:34:18;;;;;;;5.68;1.10;;;;;;;;;;5110439;28;20369;-73
2021/05/21 01:36:47;;;;;;;2.80;0.80;;;;;;;;;;5110377;28;20023;-72
2021/05/21 01:39:13;;;;;;;3.15;0.88;;;;;;;;;;5110322;28;20053;-72
2021/05/21 01:43:09;;;;;;;4.57;0.70;;;;;;;;;;5069878;28;20392;-71
2021/05/21 01:45:35;;;;;;;2.22;0.35;;;;;;;;;;5069951;28;20020;-71
2021/05/21 01:48:02;;;;;;;3.40;0.63;;;;;;;;;;5069418;28;20020;-71
2021/05/21 01:50:29;;;;;;;1.17;0.50;;;;;;;;;;5069862;28;20473;-71
2021/05/21 01:54:10;;;;;;;2.53;0.65;;;;;;;;;;5069464;28;20388;-71
2021/05/21 01:56:37;;;;;;;2.83;0.80;;;;;;;;;;5069891;28;20032;-71
2021/05/21 01:59:04;;;;;;;1.95;0.70;;;;;;;;;;5052064;28;20145;-71
2021/05/21 02:02:38;;;;;;;4.93;0.80;;;;;;;;;;5110407;27;20446;-71
2021/05/21 02:05:06;;;;;;;5.00;0.63;;;;;;;;;;5110373;28;20036;-71
2021/05/21 02:07:32;;;;;;;7.78;0.70;;;;;;;;;;5109951;28;20121;-71
2021/05/21 02:10:03;;;;;;;2.17;0.55;;;;;;;;;;5108980;28;20024;-71
2021/05/21 02:14:04;;;;;;;5.22;0.70;;;;;;;;;;5109973;27;20385;-71
2021/05/21 02:16:53;;;;;;;2.55;0.68;;;;;;;;;;5110519;27;20377;-70
2021/05/21 02:19:20;;;;;;;1.55;0.63;;;;;;;;;;5110614;28;20027;-71
2021/05/21 02:21:46;;;;;;;3.88;0.77;;;;;;;;;;5108680;28;20111;-71
2021/05/21 02:24:12;;;;;;;1.30;0.43;;;;;;;;;;5108972;28;20077;-71
2021/05/21 02:26:39;;;;;;;2.88;0.45;;;;;;;;;;5110276;28;20074;-71
2021/05/21 02:31:16;;;;;;;2.30;0.60;;;;;;;;;;5110438;27;20775;-70
2021/05/21 02:33:42;;;;;;;0.98;0.70;;;;;;;;;;5110421;28;20432;-71
2021/05/21 02:38:12;;;;;;;3.50;0.70;;;;;;;;;;5110637;27;20389;-71
2021/05/21 02:40:38;;;;;;;4.47;0.47;;;;;;;;;;5110647;28;20054;-71
2021/05/21 02:43:04;;;;;;;2.22;0.77;;;;;;;;;;5108745;28;20019;-71
2021/05/21 02:45:30;;;;;;;1.30;0.60;;;;;;;;;;5110309;28;20016;-71
2021/05/21 02:49:21;;;;;;;3.55;0.50;;;;;;;;;;5110057;27;20377;-71
2021/05/21 02:51:48;;;;;;;2.70;0.60;;;;;;;;;;5109044;28;20036;-71
2021/05/21 02:54:14;;;;;;;1.83;0.40;;;;;;;;;;5110332;28;20023;-71
2021/05/21 02:56:40;;;;;;;5.40;0.90;;;;;;;;;;5109921;28;20024;-71
2021/05/21 02:59:06;;;;;;;1.13;0.60;;;;;;;;;;5109171;28;20472;-71
2021/05/21 03:01:33;;;;;;;2.50;0.63;;;;;;;;;;5109063;28;20085;-71
2021/05/21 03:03:59;;;;;;;2.53;0.65;;;;;;;;;;5109739;28;20090;-71
2021/05/21 03:06:59;;;;;;;1.83;0.60;;;;;;;;;;5110438;27;20416;-71
2021/05/21 03:09:25;;;;;;;4.63;1.30;;;;;;;;;;5110470;28;20050;-71
2021/05/21 03:11:51;;;;;;;1.45;0.75;;;;;;;;;;5109988;28;20137;-71
2021/05/21 03:15:41;;;;;;;1.35;0.63;;;;;;;;;;5110378;27;20896;-71
2021/05/21 03:18:11;;;;;;;2.83;0.50;;;;;;;;;;5108869;28;20484;-71
2021/05/21 03:20:38;;;;;;;1.98;0.50;;;;;;;;;;5109301;28;20031;-71
2021/05/21 03:23:04;;;;;;;2.80;0.57;;;;;;;;;;5110339;28;20023;-71
2021/05/21 03:25:30;;;;;;;1.58;0.60;;;;;;;;;;5109916;28;20027;-71
2021/05/21 03:29:24;;;;;;;2.10;0.65;;;;;;;;;;5110433;27;20388;-71
2021/05/21 03:31:50;;;;;;;3.58;0.65;;;;;;;;;;5109960;28;20020;-71
2021/05/21 03:36:41;;;;;;;1.65;0.57;;;;;;;;;;5110518;27;20169;-71
2021/05/21 03:39:08;;;;;;;6.10;1.02;;;;;;;;;;5110265;28;20450;-72
2021/05/21 03:41:35;;;;;;;1.55;0.65;;;;;;;;;;5110608;28;20062;-71
2021/05/21 03:44:56;;;;;;;1.65;0.65;;;;;;;;;;5069914;28;20384;-71
2021/05/21 03:49:17;;;;;;;1.80;0.88;;;;;;;;;;5110542;27;20469;-71
2021/05/21 03:51:44;;;;;;;1.40;0.60;;;;;;;;;;5126320;28;20028;-71
2021/05/21 03:55:56;;;;;;;2.00;0.50;;;;;;;;;;5030010;28;20390;-71
2021/05/21 03:58:23;;;;;;;2.60;0.47;;;;;;;;;;5030174;28;20030;-72
2021/05/21 04:00:49;;;;;;;3.78;0.73;;;;;;;;;;5029805;28;20036;-72
2021/05/21 04:03:16;;;;;;;1.15;0.47;;;;;;;;;;5028756;28;20072;-72
2021/05/21 04:05:42;;;;;;;10.10;1.40;;;;;;;;;;5029850;28;20415;-72
2021/05/21 04:08:08;;;;;;;1.58;0.80;;;;;;;;;;5029479;28;20025;-72
2021/05/21 04:10:36;;;;;;;1.60;0.63;;;;;;;;;;5028620;28;20378;-72
2021/05/21 04:13:02;;;;;;;2.67;0.95;;;;;;;;;;5029989;28;20022;-72
2021/05/21 04:15:28;;;;;;;1.15;0.63;;;;;;;;;;5029374;28;20061;-71
2021/05/21 04:17:54;;;;;;;4.45;0.70;;;;;;;;;;5029732;28;20064;-71
2021/05/21 04:22:32;;;;;;;1.90;0.80;;;;;;;;;;5110355;27;20787;-71
2021/05/21 04:24:58;;;;;;;2.17;0.82;;;;;;;;;;5109106;28;20431;-71
2021/05/21 04:27:25;;;;;;;6.05;2.53;;;;;;;;;;5110398;28;20103;-71
2021/05/21 04:29:51;;;;;;;2.72;1.20;;;;;;;;;;5109983;28;20020;-71
2021/05/21 04:32:17;;;;;;;1.88;1.00;;;;;;;;;;5110422;28;20106;-71
2021/05/21 04:34:43;;;;;;;3.60;1.02;;;;;;;;;;5109850;28;20027;-71
2021/05/21 04:39:12;;;;;;;0.90;0.60;;;;;;;;;;5110616;27;20385;-71
2021/05/21 04:41:38;;;;;;;1.88;0.60;;;;;;;;;;5110599;28;20024;-72
2021/05/21 04:46:06;;;;;;;2.35;0.82;;;;;;;;;;5110525;27;20749;-71
2021/05/21 04:51:17;;;;;;;1.55;0.50;;;;;;;;;;5110467;27;20434;-71
2021/05/21 04:54:38;;;;;;;4.20;1.23;;;;;;;;;;5110481;27;20442;-72
2021/05/21 04:57:05;;;;;;;3.53;0.82;;;;;;;;;;5110497;28;20015;-72
2021/05/21 05:01:10;;;;;;;3.70;0.98;;;;;;;;;;5049971;28;20454;-72
2021/05/21 05:09:02;;;;;;;2.92;0.70;;;;;;;;;;5108484;27;20383;-67
2021/05/21 05:12:16;;;;;;;3.92;0.90;;;;;;;;;;5168545;27;20314;-66
2021/05/21 05:15:12;;;;;;;1.50;1.00;;;;;;;;;;5169623;27;20314;-67
2021/05/21 05:17:38;;;;;;;4.03;0.77;;;;;;;;;;5148894;27;20094;-67
2021/05/21 05:20:04;;;;;;;1.98;0.93;;;;;;;;;;5140994;27;20023;-67
2021/05/21 05:22:31;;;;;;;2.05;0.77;;;;;;;;;;5133635;27;20495;-66
2021/05/21 05:24:57;;;;;;;11.05;1.05;;;;;;;;;;5150720;27;20412;-69
2021/05/21 05:27:24;;;;;;;2.00;1.30;;;;;;;;;;5140649;27;20042;-69
2021/05/21 05:29:50;;;;;;;2.33;1.10;;;;;;;;;;5142912;27;20103;-68
2021/05/21 05:32:17;;;;;;;5.97;1.48;;;;;;;;;;5146467;27;20058;-68
2021/05/21 05:34:43;;;;;;;2.33;1.30;;;;;;;;;;5148071;27;20023;-70
2021/05/21 05:38:15;;;;;;;2.40;1.20;;;;;;;;;;5109587;27;20450;-68
2021/05/21 05:40:41;;;;;;;7.75;1.98;;;;;;;;;;5109717;28;20089;-68
2021/05/21 05:43:07;;;;;;;5.18;1.73;;;;;;;;;;5109869;28;20016;-69
2021/05/21 05:45:34;;;;;;;4.18;1.75;;;;;;;;;;5108353;28;20543;-69
2021/05/21 05:48:00;;;;;;;5.55;1.35;;;;;;;;;;5107627;28;20073;-71
2021/05/21 05:50:26;;;;;;;6.18;1.77;;;;;;;;;;5109574;28;20051;-69
2021/05/21 05:52:52;;;;;;;4.95;1.77;;;;;;;;;;5108353;28;20031;-68
2021/05/21 06:02:39;;;;;;;4.47;1.42;;;;;;;;;;5056664;28;20632;-68
2021/05/21 06:05:05;;;;;;;3.75;1.40;;;;;;;;;;5069795;28;20052;-68
2021/05/21 06:07:31;;;;;;;2.67;1.33;;;;;;;;;;5069255;28;20029;-68
2021/05/21 06:09:58;;;;;;;4.10;1.35;;;;;;;;;;5068018;28;20473;-68
2021/05/21 06:12:24;;;;;;;4.75;1.30;;;;;;;;;;5069470;28;20025;-67
2021/05/21 06:19:45;;;;;;;14.75;3.85;;;;;;;;;;5110369;27;20377;-67
2021/05/21 06:24:12;;;;;;;4.45;1.70;;;;;;;;;;5110020;27;20322;-68
2021/05/21 06:27:44;;;;;;;3.17;1.73;;;;;;;;;;5109608;27;20392;-67
2021/05/21 06:30:12;;;;;;;5.25;2.20;;;;;;;;;;5108489;28;20028;-72
2021/05/21 06:32:38;;;;;;;3.45;2.05;;;;;;;;;;5108754;28;20024;-71
2021/05/21 06:35:05;;;;;;;6.25;2.55;;;;;;;;;;5109848;28;20522;-71
2021/05/21 06:39:18;;;;;;;6.57;3.67;;;;;;;;;;5110425;27;20461;-71
2021/05/21 06:43:19;;;;;;;4.15;2.67;;;;;;;;;;5109713;27;20668;-72
2021/05/21 06:46:42;;;;;;;5.70;2.80;;;;;;;;;;5107186;27;20400;-70
2021/05/21 06:49:11;;;;;;;5.10;2.85;;;;;;;;;;5103567;28;20032;-71
2021/05/21 06:52:39;;;;;;;11.15;3.00;;;;;;;;;;5109920;27;20385;-68
2021/05/21 06:55:06;;;;;;;10.73;3.25;;;;;;;;;;5110159;28;20024;-67
2021/05/21 06:57:32;;;;;;;6.13;3.22;;;;;;;;;;5104988;28;20031;-66
2021/05/21 06:59:59;;;;;;;5.10;2.78;;;;;;;;;;5108300;28;20492;-66
2021/05/21 07:02:28;;;;;;;10.88;3.95;;;;;;;;;;5108342;28;20488;-66
2021/05/21 07:06:06;;;;;;;9.48;2.75;;;;;;;;;;5109939;27;20818;-67
2021/05/21 07:08:32;;;;;;;7.47;3.10;;;;;;;;;;5108442;28;20028;-65
2021/05/21 07:14:03;;;;;;;5.50;2.83;;;;;;;;;;5109927;27;20408;-67
2021/05/21 07:16:30;;;;;;;4.80;3.00;;;;;;;;;;5109889;28;20028;-67
2021/05/21 07:19:56;;;;;;;9.77;3.10;;;;;;;;;;5109390;27;21204;-66
2021/05/21 07:22:22;;;;;;;6.55;3.40;;;;;;;;;;5107594;28;20031;-66
2021/05/21 07:24:49;;;;;;;4.82;2.80;;;;;;;;;;5108511;28;20911;-66
2021/05/21 07:27:34;;;;;;;7.05;2.88;;;;;;;;;;5108420;27;20446;-66
2021/05/21 07:32:48;;;;;;;5.45;2.72;;;;;;;;;;5109611;27;20992;-66
2021/05/21 07:35:14;;;;;;;5.18;2.63;;;;;;;;;;5108490;28;20055;-66
2021/05/21 07:37:42;;;;;;;6.65;2.30;;;;;;;;;;5109729;28;20034;-67
2021/05/21 07:40:08;;;;;;;5.57;2.78;;;;;;;;;;5110055;28;20045;-67
2021/05/21 07:42:36;;;;;;;4.53;2.50;;;;;;;;;;5109920;28;20020;-66
2021/05/21 07:46:27;;;;;;;5.53;2.92;;;;;;;;;;5109595;27;20465;-66
2021/05/21 07:48:56;;;;;;;9.93;3.95;;;;;;;;;;5110430;28;20034;-68
2021/05/21 07:51:37;;;;;;;8.70;2.63;;;;;;;;;;5171325;27;20331;-67
2021/05/21 07:54:03;;;;;;;5.13;2.85;;;;;;;;;;5140278;27;20024;-67
2021/05/21 07:56:29;;;;;;;5.50;2.67;;;;;;;;;;5112267;28;20064;-71
2021/05/21 07:58:55;;;;;;;7.07;3.65;;;;;;;;;;5139640;27;20022;-71
2021/05/21 08:01:22;;;;;;;5.20;3.15;;;;;;;;;;5140858;27;20016;-73
2021/05/21 08:03:49;;;;;;;6.18;3.03;;;;;;;;;;5111067;27;20023;-72
2021/05/21 08:06:15;;;;;;;8.90;3.25;;;;;;;;;;5129293;28;20023;-73
2021/05/21 08:11:19;;;;;;;4.90;2.75;;;;;;;;;;5068918;28;20449;-72
2021/05/21 08:13:45;;;;;;;8.57;3.30;;;;;;;;;;5068000;28;20033;-71
2021/05/21 08:16:14;;;;;;;4.72;2.90;;;;;;;;;;5066542;28;20049;-73
2021/05/21 08:18:40;;;;;;;5.75;3.28;;;;;;;;;;5066347;28;20044;-74
2021/05/21 08:21:07;;;;;;;5.53;3.15;;;;;;;;;;5066425;28;20104;-70
2021/05/21 08:23:34;;;;;;;4.78;2.78;;;;;;;;;;5064567;28;20025;-70
2021/05/21 08:27:25;;;;;;;10.05;3.17;;;;;;;;;;5150711;27;20366;-71
2021/05/21 08:29:51;;;;;;;6.25;2.88;;;;;;;;;;5119511;28;20019;-71
2021/05/21 08:32:30;;;;;;;8.05;3.05;;;;;;;;;;5109822;27;21219;-73
2021/05/21 08:34:56;;;;;;;5.75;3.17;;;;;;;;;;5103219;28;20028;-71
2021/05/21 08:37:22;;;;;;;5.25;3.05;;;;;;;;;;5110007;28;20726;-72
2021/05/21 08:39:48;;;;;;;5.22;3.00;;;;;;;;;;5109890;28;20357;-72
2021/05/21 08:42:16;;;;;;;5.35;2.92;;;;;;;;;;5104692;28;20027;-72
2021/05/21 08:44:48;;;;;;;8.90;3.30;;;;;;;;;;5103247;28;20024;-72
2021/05/21 08:47:15;;;;;;;10.23;3.72;;;;;;;;;;5108501;28;20115;-72
2021/05/21 08:49:41;;;;;;;5.45;2.92;;;;;;;;;;5099965;28;20024;-73
2021/05/21 08:52:08;;;;;;;8.02;3.30;;;;;;;;;;5106673;28;20043;-71
2021/05/21 08:54:35;;;;;;;4.20;2.70;;;;;;;;;;5107868;28;20020;-71
2021/05/21 08:59:08;;;;;;;5.78;3.20;;;;;;;;;;5108627;27;20380;-71
2021/05/21 09:03:33;;;;;;;5.80;2.65;;;;;;;;;;5065829;28;20392;-72
2021/05/21 09:06:05;;;;;;;9.05;2.88;;;;;;;;;;5069167;28;20029;-71
2021/05/21 09:12:00;;;;;;;9.05;3.10;;;;;;;;;;5108426;27;20721;-67
2021/05/21 09:14:26;;;;;;;8.48;3.03;;;;;;;;;;5107220;28;20020;-67
2021/05/21 09:16:55;;;;;;;4.40;2.05;;;;;;;;;;5105320;28;20606;-68
2021/05/21 09:19:23;;;;;;;5.68;2.00;;;;;;;;;;5108268;28;20023;-69
2021/05/21 09:21:59;;;;;;;2.95;2.10;;;;;;;;;;5107443;28;20103;-68
2021/05/21 09:25:59;;;;;;;4.15;2.42;;;;;;;;;;5106202;27;20994;-67
2021/05/21 09:29:56;;;;;;;3.83;2.58;;;;;;;;;;5106937;27;20385;-68
2021/05/21 09:32:25;;;;;;;9.65;2.95;;;;;;;;;;5107922;28;20366;-68
2021/05/21 09:35:13;;;;;;;5.53;2.78;;;;;;;;;;5108770;28;20020;-68
2021/05/21 09:37:45;;;;;;;4.97;2.80;;;;;;;;;;5106685;28;20020;-68
2021/05/21 09:43:32;;;;;;;4.68;2.15;;;;;;;;;;5108382;27;20775;-71
2021/05/21 09:46:07;;;;;;;4.10;2.70;;;;;;;;;;5109662;28;20032;-69
2021/05/21 09:48:34;;;;;;;3.75;2.28;;;;;;;;;;5108694;28;20024;-69
2021/05/21 09:53:03;;;;;;;3.65;2.40;;;;;;;;;;5129097;27;20122;-68
2021/05/21 09:55:57;;;;;;;7.40;3.53;;;;;;;;;;5114311;27;20127;-68
2021/05/21 09:58:34;;;;;;;4.93;2.20;;;;;;;;;;5088013;28;20031;-67
2021/05/21 10:01:12;;;;;;;3.63;2.40;;;;;;;;;;5109379;28;20027;-68
2021/05/21 10:03:40;;;;;;;3.67;2.38;;;;;;;;;;5110101;28;20427;-70
2021/05/21 10:06:06;;;;;;;5.32;2.47;;;;;;;;;;5091277;28;20085;-70
2021/05/21 10:08:32;;;;;;;3.13;2.15;;;;;;;;;;5091637;28;20024;-71
2021/05/21 10:10:59;;;;;;;3.63;2.38;;;;;;;;;;5091295;28;20034;-69
2021/05/21 10:13:26;;;;;;;4.95;2.20;;;;;;;;;;5091209;28;20115;-72
2021/05/21 10:15:53;;;;;;;4.75;2.50;;;;;;;;;;5091461;28;20426;-70
2021/05/21 10:19:15;;;;;;;5.35;2.60;;;;;;;;;;5106801;27;20874;-67
2021/05/21 10:21:58;;;;;;;5.40;2.58;;;;;;;;;;5094474;27;20434;-68
2021/05/21 10:24:27;;;;;;;8.13;2.40;;;;;;;;;;5097772;28;20036;-69
2021/05/21 10:26:55;;;;;;;4.88;3.28;;;;;;;;;;5088210;28;20213;-69
2021/05/21 10:29:23;;;;;;;5.13;2.97;;;;;;;;;;5087112;28;20427;-68
2021/05/21 10:31:52;;;;;;;3.20;2.05;;;;;;;;;;5103374;28;20376;-69
2021/05/21 10:34:22;;;;;;;12.23;2.95;;;;;;;;;;5109402;28;20030;-67
2021/05/21 10:37:39;;;;;;;3.88;2.17;;;;;;;;;;5130784;27;20331;-75
2021/05/21 10:40:09;;;;;;;3.92;2.25;;;;;;;;;;5109146;28;20107;-72
2021/05/21 10:42:39;;;;;;;6.28;3.08;;;;;;;;;;5108264;28;20020;-73
2021/05/21 10:45:07;;;;;;;4.97;2.10;;;;;;;;;;5109318;28;20431;-72
2021/05/21 10:47:37;;;;;;;3.40;2.20;;;;;;;;;;5090792;28;20032;-71
2021/05/21 10:50:04;;;;;;;6.03;2.50;;;;;;;;;;5109512;28;20021;-72
2021/05/21 10:52:49;;;;;;;3.58;2.20;;;;;;;;;;5109293;28;20472;-74
2021/05/21 10:55:16;;;;;;;2.53;1.70;;;;;;;;;;5109409;28;20027;-71
2021/05/21 10:57:57;;;;;;;3.78;2.10;;;;;;;;;;5091499;28;20129;-73
2021/05/21 11:01:29;;;;;;;4.53;1.92;;;;;;;;;;5090333;28;20447;-72
2021/05/21 11:04:08;;;;;;;4.38;2.88;;;;;;;;;;5089385;28;20059;-72
2021/05/21 11:06:45;;;;;;;4.07;2.40;;;;;;;;;;5089662;28;20553;-73
2021/05/21 11:09:13;;;;;;;3.78;2.03;;;;;;;;;;5089394;28;20085;-73
2021/05/21 11:12:44;;;;;;;3.10;2.22;;;;;;;;;;5110123;27;20434;-72
2021/05/21 11:15:45;;;;;;;4.45;2.03;;;;;;;;;;5110433;27;20381;-73
2021/05/21 11:18:20;;;;;;;4.72;2.53;;;;;;;;;;5110253;28;20036;-74
2021/05/21 11:20:56;;;;;;;5.63;2.42;;;;;;;;;;5109943;28;20012;-73
2021/05/21 11:25:00;;;;;;;4.68;1.98;;;;;;;;;;5069142;28;20388;-72
2021/05/21 11:27:28;;;;;;;5.50;2.20;;;;;;;;;;5068498;28;20047;-73
2021/05/21 11:30:23;;;;;;;5.43;2.00;;;;;;;;;;5109822;27;20434;-73
2021/05/21 11:32:49;;;;;;;3.33;1.90;;;;;;;;;;5109103;28;20575;-73
2021/05/21 11:35:15;;;;;;;3.42;2.10;;;;;;;;;;5110458;28;20051;-72
2021/05/21 11:37:42;;;;;;;3.33;2.13;;;;;;;;;;5108510;28;20027;-72
2021/05/21 11:40:09;;;;;;;6.80;1.63;;;;;;;;;;5110244;28;20099;-73
2021/05/21 11:43:07;;;;;;;4.05;1.67;;;;;;;;;;5110243;27;20381;-73
2021/05/21 11:45:33;;;;;;;4.18;1.77;;;;;;;;;;5109978;28;20030;-73
2021/05/21 11:48:01;;;;;;;3.13;1.98;;;;;;;;;;5110288;28;20020;-73
2021/05/21 11:50:30;;;;;;;5.82;1.80;;;;;;;;;;5108947;28;20081;-73
2021/05/21 11:53:08;;;;;;;3.95;1.63;;;;;;;;;;5108556;28;20024;-73
2021/05/21 11:55:34;;;;;;;2.42;1.33;;;;;;;;;;5110369;28;20072;-73
2021/05/21 11:58:01;;;;;;;2.25;1.65;;;;;;;;;;5109785;28;20024;-74
2021/05/21 12:00:28;;;;;;;3.20;1.85;;;;;;;;;;5108732;28;20019;-74
2021/05/21 12:02:55;;;;;;;3.20;1.70;;;;;;;;;;5110022;28;20288;-73
2021/05/21 12:05:24;;;;;;;3.42;1.75;;;;;;;;;;5109545;28;20024;-74
2021/05/21 12:07:50;;;;;;;5.25;1.73;;;;;;;;;;5109945;28;20488;-73
2021/05/21 12:10:16;;;;;;;6.30;1.80;;;;;;;;;;5109942;28;20099;-74
2021/05/21 12:12:43;;;;;;;2.72;1.80;;;;;;;;;;5109484;28;20027;-73
2021/05/21 12:15:09;;;;;;;3.63;2.10;;;;;;;;;;5109036;28;20556;-74
2021/05/21 12:17:36;;;;;;;5.75;2.33;;;;;;;;;;5109545;28;20024;-72
2021/05/21 12:20:06;;;;;;;3.25;1.92;;;;;;;;;;5109450;28;20023;-73
2021/05/21 12:22:32;;;;;;;8.60;2.50;;;;;;;;;;5108599;28;20032;-73
2021/05/21 12:24:58;;;;;;;3.35;1.98;;;;;;;;;;5109721;28;20399;-73
2021/05/21 12:27:25;;;;;;;8.27;2.03;;;;;;;;;;5109257;28;20051;-73
2021/05/21 12:29:51;;;;;;;7.25;2.28;;;;;;;;;;5109647;28;20023;-73
2021/05/21 12:32:18;;;;;;;3.72;2.28;;;;;;;;;;5109713;28;20028;-74
2021/05/21 12:34:44;;;;;;;3.20;1.92;;;;;;;;;;5106348;28;20047;-74
2021/05/21 12:37:10;;;;;;;4.30;2.20;;;;;;;;;;5109463;28;20066;-73
2021/05/21 12:39:41;;;;;;;3.15;1.77;;;;;;;;;;5108127;28;20511;-74
2021/05/21 12:42:07;;;;;;;7.15;2.10;;;;;;;;;;5108800;28;20511;-73
2021/05/21 12:44:51;;;;;;;2.60;1.60;;;;;;;;;;5105625;27;20785;-73
2021/05/21 12:47:19;;;;;;;5.72;2.05;;;;;;;;;;5109944;28;20043;-75
2021/05/21 12:49:46;;;;;;;3.97;1.70;;;;;;;;;;5110268;28;20016;-72
2021/05/21 12:52:13;;;;;;;3.17;2.03;;;;;;;;;;5110135;28;20391;-73
2021/05/21 12:54:46;;;;;;;6.50;1.92;;;;;;;;;;5109805;28;20529;-73
2021/05/21 12:57:19;;;;;;;3.13;1.88;;;;;;;;;;5109949;28;20023;-73
2021/05/21 12:59:49;;;;;;;3.03;1.83;;;;;;;;;;5110036;28;20020;-74
2021/05/21 13:02:17;;;;;;;2.88;1.60;;;;;;;;;;5109597;28;20095;-74
2021/05/21 13:04:55;;;;;;;3.40;1.60;;;;;;;;;;5109912;28;20391;-74
2021/05/21 13:07:22;;;;;;;3.35;1.80;;;;;;;;;;5107936;28;20024;-74
2021/05/21 13:09:52;;;;;;;3.17;1.67;;;;;;;;;;5109632;28;20038;-73
2021/05/21 13:13:47;;;;;;;8.55;2.10;;;;;;;;;;5069677;28;20894;-73
2021/05/21 13:16:14;;;;;;;3.72;2.10;;;;;;;;;;5067613;28;20024;-73
2021/05/21 13:18:41;;;;;;;3.05;2.03;;;;;;;;;;5068709;28;20025;-73
2021/05/21 13:24:58;;;;;;;2.35;1.50;;;;;;;;;;5110354;27;20380;-72
2021/05/21 13:27:28;;;;;;;4.93;2.00;;;;;;;;;;5110384;28;20032;-73
2021/05/21 13:29:55;;;;;;;3.75;1.90;;;;;;;;;;5108649;28;20073;-73
2021/05/21 13:32:22;;;;;;;3.72;1.70;;;;;;;;;;5109494;28;20488;-73
2021/05/21 13:34:48;;;;;;;3.38;1.40;;;;;;;;;;5110164;28;20055;-73
2021/05/21 13:37:15;;;;;;;3.42;1.55;;;;;;;;;;5109684;28;20023;-74
2021/05/21 13:39:41;;;;;;;1.98;1.27;;;;;;;;;;5110020;28;20031;-74
2021/05/21 13:42:08;;;;;;;2.72;1.33;;;;;;;;;;5108474;28;20028;-74
2021/05/21 13:44:34;;;;;;;2.83;1.77;;;;;;;;;;5109672;28;20031;-74
2021/05/21 13:47:00;;;;;;;6.20;1.70;;;;;;;;;;5107692;28;20031;-73
2021/05/21 13:49:29;;;;;;;2.17;1.33;;;;;;;;;;5110366;28;20077;-74
2021/05/21 13:51:57;;;;;;;2.72;1.80;;;;;;;;;;5109052;28;20249;-72
2021/05/21 13:54:24;;;;;;;2.50;1.50;;;;;;;;;;5109979;28;20020;-74
2021/05/21 13:56:51;;;;;;;5.68;2.33;;;;;;;;;;5109990;28;20020;-72
2021/05/21 13:59:17;;;;;;;7.25;1.98;;;;;;;;;;5109677;28;20125;-73
2021/05/21 14:01:43;;;;;;;3.20;1.80;;;;;;;;;;5109948;28;20480;-73
2021/05/21 14:04:10;;;;;;;3.70;1.80;;;;;;;;;;5109770;28;20396;-73
2021/05/21 14:06:36;;;;;;;2.38;1.55;;;;;;;;;;5109449;28;20024;-73
2021/05/21 14:09:03;;;;;;;2.30;1.73;;;;;;;;;;5109940;28;20121;-73
2021/05/21 14:11:29;;;;;;;2.35;1.30;;;;;;;;;;5109763;28;20024;-71
2021/05/21 14:13:56;;;;;;;2.33;1.38;;;;;;;;;;5108105;28;20388;-72
2021/05/21 14:17:49;;;;;;;1.80;1.45;;;;;;;;;;5069828;28;20388;-72
2021/05/21 14:20:16;;;;;;;3.10;1.50;;;;;;;;;;5069458;28;20075;-72
2021/05/21 14:22:42;;;;;;;2.10;1.30;;;;;;;;;;5069811;28;20025;-72
2021/05/21 14:25:09;;;;;;;3.08;1.40;;;;;;;;;;5068409;28;20485;-72
2021/05/21 14:27:37;;;;;;;1.63;1.20;;;;;;;;;;5069461;28;20036;-72
2021/05/21 14:32:10;;;;;;;3.22;1.40;;;;;;;;;;5131129;27;20157;-73
2021/05/21 14:34:36;;;;;;;7.25;1.05;;;;;;;;;;5109888;28;20066;-73
2021/05/21 14:37:05;;;;;;;2.33;1.15;;;;;;;;;;5110266;28;20488;-73
2021/05/21 14:39:31;;;;;;;3.03;1.08;;;;;;;;;;5110538;28;20020;-73
2021/05/21 14:41:57;;;;;;;2.22;1.10;;;;;;;;;;5109913;28;20024;-73
2021/05/21 14:44:24;;;;;;;22.58;1.75;;;;;;;;;;5109312;28;20030;-74
2021/05/21 14:46:50;;;;;;;1.90;1.20;;;;;;;;;;5090929;28;20024;-74
2021/05/21 14:49:17;;;;;;;3.53;2.97;;;;;;;;;;5091909;28;20051;-74
2021/05/21 14:51:45;;;;;;;1.98;1.30;;;;;;;;;;5109800;28;20032;-74
2021/05/21 14:54:12;;;;;;;1.92;0.90;;;;;;;;;;5107700;28;20372;-75
2021/05/21 14:56:38;;;;;;;6.43;1.00;;;;;;;;;;5108114;28;20443;-75
2021/05/21 14:59:05;;;;;;;1.13;0.85;;;;;;;;;;5108113;28;20053;-73
2021/05/21 15:01:32;;;;;;;2.45;1.05;;;;;;;;;;5107472;28;20031;-74
2021/05/21 15:03:58;;;;;;;1.05;0.80;;;;;;;;;;5108845;28;20349;-72
2021/05/21 15:06:25;;;;;;;2.33;0.90;;;;;;;;;;5107938;28;20024;-73
2021/05/21 15:08:52;;;;;;;2.17;1.05;;;;;;;;;;5089373;28;20045;-75
2021/05/21 15:11:21;;;;;;;1.38;0.85;;;;;;;;;;5108118;28;20047;-74
2021/05/21 15:13:48;;;;;;;3.08;1.10;;;;;;;;;;5108402;28;20134;-72
2021/05/21 15:16:24;;;;;;;3.28;0.88;;;;;;;;;;5108511;28;20422;-72
2021/05/21 15:21:58;;;;;;;6.53;1.60;;;;;;;;;;5109540;28;20027;-73
2021/05/21 15:24:38;;;;;;;4.72;1.00;;;;;;;;;;5109479;28;20476;-73
2021/05/21 15:27:05;;;;;;;1.77;0.88;;;;;;;;;;5109531;28;20095;-73
2021/05/21 15:29:31;;;;;;;2.50;0.93;;;;;;;;;;5090883;28;20028;-73
2021/05/21 15:31:59;;;;;;;2.70;1.30;;;;;;;;;;5090168;28;20049;-73
2021/05/21 15:34:25;;;;;;;3.20;1.02;;;;;;;;;;5088860;28;20457;-74
2021/05/21 15:36:52;;;;;;;3.22;1.20;;;;;;;;;;5088510;28;20099;-74
2021/05/21 15:39:19;;;;;;;2.10;0.80;;;;;;;;;;5088320;28;20093;-74
2021/05/21 15:42:03;;;;;;;3.10;1.10;;;;;;;;;;5084931;28;20021;-73
2021/05/21 15:47:15;;;;;;;3.42;1.30;;;;;;;;;;5075441;28;20054;-73
2021/05/21 15:51:30;;;;;;;3.15;1.13;;;;;;;;;;5069585;28;20392;-74
2021/05/21 15:59:14;;;;;;;5.15;1.38;;;;;;;;;;5068173;28;20086;-74
2021/05/21 16:01:40;;;;;;;2.47;1.20;;;;;;;;;;5068441;28;20481;-74
2021/05/21 16:04:07;;;;;;;1.58;0.90;;;;;;;;;;5069283;28;20037;-74
2021/05/21 16:06:33;;;;;;;3.65;1.15;;;;;;;;;;5069633;28;20017;-73
2021/05/21 16:09:00;;;;;;;2.20;1.13;;;;;;;;;;5069550;28;20051;-73
2021/05/21 16:11:33;;;;;;;2.47;1.40;;;;;;;;;;5067720;28;20043;-74
2021/05/21 16:13:59;;;;;;;;;;;;;;;;;;5070037;28;20031;-76
2021/05/21 16:16:26;;;;;;;1.65;0.80;;;;;;;;;;5066429;28;19904;-74
2021/05/21 16:18:55;;;;;;;2.65;1.50;;;;;;;;;;5067093;28;20029;-74
2021/05/21 16:21:23;;;;;;;2.10;1.30;;;;;;;;;;5067495;28;20437;-74
2021/05/21 16:23:49;;;;;;;1.95;1.20;;;;;;;;;;5067593;28;20017;-73
2021/05/21 16:26:16;;;;;;;2.42;1.20;;;;;;;;;;5067284;28;20017;-73
2021/05/21 16:28:43;;;;;;;2.80;1.52;;;;;;;;;;5068223;28;20023;-74
2021/05/21 16:31:09;;;;;;;2.72;1.50;;;;;;;;;;5067429;28;20033;-75
2021/05/21 16:33:35;;;;;;;3.72;1.58;;;;;;;;;;5065124;28;20026;-72
2021/05/21 16:36:02;;;;;;;2.38;1.40;;;;;;;;;;5068156;28;20100;-74
2021/05/21 16:38:36;;;;;;;3.90;1.60;;;;;;;;;;5084936;28;20392;-73
2021/05/21 16:41:07;;;;;;;2.38;1.58;;;;;;;;;;5069359;28;20021;-73
2021/05/21 16:43:33;;;;;;;3.90;1.80;;;;;;;;;;5068322;28;20028;-73
2021/05/21 16:46:00;;;;;;;5.60;2.80;;;;;;;;;;5068371;28;20024;-74
2021/05/21 16:48:26;;;;;;;5.00;2.80;;;;;;;;;;5068138;28;20124;-74
2021/05/21 16:50:53;;;;;;;7.57;2.65;;;;;;;;;;5069553;28;20013;-73